Time;durP1;ratioP1;P1;durP2;ratioP2;P2;SDS_P1;SDS_P2;PMS_P1;PMS_P2;Temp;Humidity;BMP_temperature;BMP_pressure;BME280_temperature;BME280_humidity;BME280_pressure;Samples;Min_cycle;Max_cycle;Signal;HPM_P1;HPM_P2
2021/05/30 00:01:28;;;;;;;15.73;12.17;;;14.50;1.00;;;;;;4975412;28;20659;-83
2021/05/30 00:03:59;;;;;;;14.10;12.60;;;14.40;1.00;;;;;;4974120;28;20207;-83
2021/05/30 00:06:28;;;;;;;14.87;12.63;;;14.40;1.00;;;;;;4975271;28;20179;-83
2021/05/30 00:09:20;;;;;;;16.50;13.13;;;14.30;1.00;;;;;;4975269;28;20684;-83
2021/05/30 00:11:46;;;;;;;16.10;13.50;;;14.30;1.00;;;;;;4975252;28;20206;-82
2021/05/30 00:14:16;;;;;;;19.07;13.40;;;14.40;1.00;;;;;;4974969;28;20167;-82
2021/05/30 00:16:58;;;;;;;15.57;12.97;;;14.30;1.00;;;;;;4975392;28;20179;-83
2021/05/30 00:19:30;;;;;;;17.53;13.03;;;14.30;1.00;;;;;;4974509;28;20647;-82
2021/05/30 00:21:59;;;;;;;15.63;14.03;;;14.30;1.00;;;;;;4974585;28;20263;-83
2021/05/30 00:24:35;;;;;;;15.83;12.93;;;14.20;5.80;;;;;;4975247;28;20210;-83
2021/05/30 00:27:04;;;;;;;17.67;14.10;;;14.20;10.00;;;;;;4978407;28;20171;-83
2021/05/30 00:29:30;;;;;;;18.27;13.67;;;14.10;12.60;;;;;;4978991;28;20175;-83
2021/05/30 00:31:56;;;;;;;17.87;14.00;;;14.00;16.90;;;;;;4977342;28;20172;-83
2021/05/30 00:34:22;;;;;;;19.87;14.43;;;14.00;21.70;;;;;;4979013;28;20211;-83
2021/05/30 00:36:48;;;;;;;18.47;14.47;;;14.00;24.00;;;;;;4979187;28;20176;-83
2021/05/30 00:39:15;;;;;;;18.83;14.47;;;13.90;26.80;;;;;;4978418;28;20176;-83
2021/05/30 00:41:41;;;;;;;17.83;13.83;;;13.90;27.30;;;;;;4978959;28;20174;-83
2021/05/30 00:44:23;;;;;;;19.80;14.67;;;13.90;29.30;;;;;;4978825;28;20210;-83
2021/05/30 00:46:51;;;;;;;19.80;14.80;;;13.80;33.10;;;;;;4978632;28;20666;-83
2021/05/30 00:49:17;;;;;;;20.50;15.57;;;13.80;35.80;;;;;;4977434;28;20190;-83
2021/05/30 00:51:44;;;;;;;18.93;14.57;;;13.80;37.70;;;;;;4978812;28;20171;-83
2021/05/30 00:54:12;;;;;;;20.80;15.90;;;13.80;36.10;;;;;;4981720;28;20195;-82
2021/05/30 00:56:53;;;;;;;20.40;14.27;;;14.00;38.40;;;;;;4988704;28;20260;-83
2021/05/30 00:59:23;;;;;;;20.07;15.37;;;13.80;40.60;;;;;;4996970;28;20174;-83
2021/05/30 01:02:01;;;;;;;19.03;15.53;;;13.60;47.80;;;;;;4997339;28;20229;-82
2021/05/30 01:05:22;;;;;;;;;;;;;;;;;;;;;
2021/05/30 01:08:25;;;;;;;;;;;;;;;;;;;;;
2021/05/30 01:11:30;;;;;;;18.60;15.53;;;13.50;53.80;;;;;;4997753;28;20197;-83
2021/05/30 01:14:32;;;;;;;18.57;15.13;;;13.40;56.80;;;;;;4996845;28;20273;-83
2021/05/30 01:17:23;;;;;;;22.00;15.53;;;13.30;60.10;;;;;;4997918;28;20181;-83
2021/05/30 01:20:06;;;;;;;23.00;16.50;;;13.30;62.40;;;;;;5010396;28;20175;-82
2021/05/30 01:22:38;;;;;;;19.97;15.37;;;13.30;65.30;;;;;;5009674;28;20266;-83
2021/05/30 01:25:10;;;;;;;18.23;15.57;;;13.30;66.50;;;;;;5012862;28;20215;-82
2021/05/30 01:27:44;;;;;;;20.47;16.77;;;13.20;68.70;;;;;;4996323;28;20202;-83
2021/05/30 01:30:32;;;;;;;20.10;16.83;;;13.30;70.70;;;;;;4997997;28;20194;-83
2021/05/30 01:33:43;;;;;;;20.77;16.87;;;13.30;70.30;;;;;;4997914;28;20171;-83
2021/05/30 01:36:51;;;;;;;19.53;16.20;;;13.30;69.90;;;;;;4975994;28;20203;-82
2021/05/30 01:40:17;;;;;;;;;;;;;;;;;;;;;
2021/05/30 01:45:40;;;;;;;23.57;17.40;;;13.10;75.30;;;;;;4976676;28;20574;-82
2021/05/30 01:48:43;;;;;;;22.67;17.50;;;13.10;76.50;;;;;;4997559;28;20170;-83
2021/05/30 01:52:05;;;;;;;20.47;17.43;;;13.00;79.40;;;;;;4997797;28;20198;-82
2021/05/30 01:54:45;;;;;;;21.13;17.23;;;13.00;81.20;;;;;;4987957;28;20187;-82
2021/05/30 01:57:12;;;;;;;21.80;17.53;;;13.10;83.20;;;;;;4996038;28;20244;-83
2021/05/30 01:59:38;;;;;;;19.93;17.80;;;13.10;83.90;;;;;;4999674;28;20188;-82
2021/05/30 02:02:11;;;;;;;23.40;17.70;;;13.10;82.00;;;;;;4998339;28;20158;-83
2021/05/30 02:08:21;;;;;;;23.43;18.07;;;13.00;84.40;;;;;;4975796;28;20211;-83
2021/05/30 02:11:18;;;;;;;20.53;16.33;;;12.90;88.70;;;;;;4977306;28;20222;-83
2021/05/30 02:17:40;;;;;;;22.43;18.17;;;12.70;91.30;;;;;;4955785;28;20180;-83
2021/05/30 02:20:18;;;;;;;21.70;17.87;;;12.70;92.30;;;;;;4949840;28;20183;-83
2021/05/30 02:22:49;;;;;;;22.93;17.53;;;12.70;92.80;;;;;;4975958;28;20632;-83
2021/05/30 02:28:56;;;;;;;22.77;19.70;;;12.60;94.30;;;;;;4968752;28;20179;-82
2021/05/30 02:31:57;;;;;;;26.73;20.50;;;12.50;96.20;;;;;;4975581;28;20632;-83
2021/05/30 02:35:11;;;;;;;23.67;18.33;;;12.50;96.90;;;;;;4985380;28;20595;-83
2021/05/30 02:37:52;;;;;;;24.83;19.80;;;12.50;97.80;;;;;;4953853;28;20198;-82
2021/05/30 02:40:33;;;;;;;23.03;19.03;;;12.50;97.70;;;;;;4976826;28;20787;-82
2021/05/30 02:43:48;;;;;;;26.40;19.33;;;12.50;97.50;;;;;;4976967;28;20255;-83
2021/05/30 02:46:22;;;;;;;23.63;18.93;;;12.40;98.40;;;;;;4977014;28;20715;-83
2021/05/30 02:49:29;;;;;;;25.93;20.23;;;12.40;99.50;;;;;;4976122;28;20206;-83
2021/05/30 02:52:23;;;;;;;22.10;19.20;;;12.30;99.90;;;;;;4974927;28;20210;-82
2021/05/30 02:58:25;;;;;;;22.00;19.00;;;12.30;99.90;;;;;;4990525;28;20233;-82
2021/05/30 03:01:28;;;;;;;23.23;19.53;;;12.20;99.90;;;;;;4994267;28;20179;-83
2021/05/30 03:07:49;;;;;;;26.53;20.17;;;12.30;99.90;;;;;;4934412;29;20197;-82
2021/05/30 03:10:34;;;;;;;27.07;20.20;;;12.20;99.90;;;;;;4902181;29;20213;-83
2021/05/30 03:13:03;;;;;;;27.30;21.37;;;12.20;99.90;;;;;;4994783;28;20194;-83
2021/05/30 03:16:05;;;;;;;24.70;20.43;;;12.20;99.90;;;;;;5008557;28;20193;-82
2021/05/30 03:19:49;;;;;;;25.67;20.60;;;12.10;99.90;;;;;;5012326;28;20197;-81
2021/05/30 03:22:47;;;;;;;28.37;20.60;;;12.00;99.90;;;;;;4974700;28;20196;-82
2021/05/30 03:25:47;;;;;;;;;;;;;;;;;;;;;
2021/05/30 03:32:29;;;;;;;27.83;22.07;;;12.10;99.90;;;;;;4842394;29;20188;-83
2021/05/30 03:35:30;;;;;;;25.70;20.00;;;12.10;99.90;;;;;;4841677;29;20224;-83
2021/05/30 03:42:26;;;;;;;25.60;21.00;;;12.00;99.90;;;;;;4924447;29;20184;-82
2021/05/30 03:45:21;;;;;;;24.97;20.50;;;12.10;99.90;;;;;;4908484;29;20237;-82
2021/05/30 03:49:12;;;;;;;;;;;;;;;;;;;;;
2021/05/30 03:51:10;;;;;;;23.30;19.47;;;12.00;99.90;;;;;;4947381;28;20184;-83
2021/05/30 03:53:44;;;;;;;27.77;21.03;;;11.90;99.90;;;;;;4989844;28;20230;-83
2021/05/30 03:56:24;;;;;;;26.83;21.17;;;11.80;99.90;;;;;;4994312;28;20237;-82
2021/05/30 03:58:51;;;;;;;28.53;21.47;;;11.80;99.90;;;;;;4994293;28;20198;-83
2021/05/30 04:02:17;;;;;;;25.60;19.90;;;11.70;99.90;;;;;;4993068;28;20182;-83
2021/05/30 04:08:50;;;;;;;27.90;20.17;;;11.80;99.90;;;;;;4858039;29;20269;-82
2021/05/30 04:12:03;;;;;;;29.27;20.40;;;11.70;99.90;;;;;;4859042;29;20249;-83
2021/05/30 04:18:25;;;;;;;30.07;21.50;;;11.60;99.90;;;;;;4858869;29;20312;-82
2021/05/30 04:21:09;;;;;;;22.77;19.57;;;11.70;99.90;;;;;;4884098;29;20281;-82
2021/05/30 04:24:14;;;;;;;25.70;19.80;;;11.80;99.90;;;;;;4896806;29;20375;-82
2021/05/30 04:26:41;;;;;;;26.40;20.77;;;11.70;99.90;;;;;;4972014;28;20207;-83
2021/05/30 04:29:12;;;;;;;26.03;21.00;;;11.60;99.90;;;;;;4994035;28;20178;-82
2021/05/30 04:31:46;;;;;;;25.03;19.90;;;11.60;99.90;;;;;;4993763;28;20182;-83
2021/05/30 04:34:18;;;;;;;27.57;22.40;;;11.50;99.90;;;;;;4994050;28;20186;-83
2021/05/30 04:36:46;;;;;;;26.93;21.83;;;11.50;99.90;;;;;;4993897;28;20294;-83
2021/05/30 04:39:31;;;;;;;;;;;;;;;;;;;;;
2021/05/30 04:42:33;;;;;;;26.10;21.00;;;11.60;99.90;;;;;;5002467;28;20257;-83
2021/05/30 04:45:28;;;;;;;26.47;20.80;;;11.60;99.90;;;;;;4996440;28;20238;-82
2021/05/30 04:48:14;;;;;;;27.40;22.13;;;11.50;99.90;;;;;;4996305;28;20182;-81
2021/05/30 04:54:51;;;;;;;29.73;21.60;;;11.70;99.90;;;;;;5005470;28;20178;-82
2021/05/30 04:58:27;;;;;;;28.43;22.13;;;11.70;99.90;;;;;;4996905;28;20179;-83
2021/05/30 05:01:25;;;;;;;29.23;22.30;;;11.70;99.90;;;;;;4972558;28;20260;-83
2021/05/30 05:04:38;;;;;;;29.67;22.67;;;11.60;99.90;;;;;;4993539;28;20175;-83
2021/05/30 05:07:40;;;;;;;28.67;22.43;;;11.60;99.90;;;;;;4959570;28;20192;-83
2021/05/30 05:14:28;;;;;;;28.30;22.93;;;11.70;99.90;;;;;;4880678;29;20190;-83
2021/05/30 05:21:04;;;;;;;28.17;21.73;;;12.00;99.90;;;;;;4824346;29;20286;-83
2021/05/30 05:24:19;;;;;;;25.83;21.07;;;12.10;99.90;;;;;;4811525;29;20290;-83
2021/05/30 05:27:24;;;;;;;25.73;21.73;;;12.20;99.90;;;;;;4833452;29;20253;-83
2021/05/30 05:31:11;;;;;;;27.07;22.47;;;12.30;99.90;;;;;;4875470;29;20195;-83
2021/05/30 05:33:57;;;;;;;25.50;20.80;;;12.30;99.90;;;;;;4807015;29;20698;-82
2021/05/30 05:36:37;;;;;;;28.07;22.03;;;12.30;99.90;;;;;;4807297;29;20197;-82
2021/05/30 05:39:10;;;;;;;26.53;22.53;;;12.20;99.90;;;;;;4899456;29;20705;-83
2021/05/30 05:41:36;;;;;;;27.83;22.30;;;12.20;99.90;;;;;;4956067;28;20187;-83
2021/05/30 05:44:08;;;;;;;28.87;23.37;;;12.30;99.90;;;;;;4995872;28;20246;-83
2021/05/30 05:46:52;;;;;;;26.83;23.77;;;12.30;99.90;;;;;;4996597;28;20175;-83
2021/05/30 05:49:49;;;;;;;28.00;23.70;;;12.40;99.90;;;;;;4995402;28;20178;-83
2021/05/30 05:52:24;;;;;;;27.87;23.53;;;12.50;99.90;;;;;;4995665;28;20205;-83
2021/05/30 05:54:55;;;;;;;27.33;23.80;;;12.60;99.90;;;;;;4995822;28;20240;-83
2021/05/30 05:57:27;;;;;;;27.23;21.50;;;12.80;99.90;;;;;;4996246;28;20266;-83
2021/05/30 05:59:53;;;;;;;25.73;22.90;;;12.60;99.20;;;;;;4977529;28;20183;-83
2021/05/30 06:02:30;;;;;;;25.33;22.63;;;12.50;99.90;;;;;;4976900;28;20175;-83
2021/05/30 06:05:25;;;;;;;24.40;21.20;;;12.50;99.90;;;;;;4977129;28;20239;-83
2021/05/30 06:07:59;;;;;;;26.70;22.43;;;12.60;99.90;;;;;;4949152;28;20179;-83
2021/05/30 06:10:28;;;;;;;29.23;23.23;;;12.70;99.60;;;;;;4977854;28;20198;-82
2021/05/30 06:12:58;;;;;;;27.37;20.93;;;12.80;99.40;;;;;;4977184;28;20167;-83
2021/05/30 06:15:32;;;;;;;26.43;22.23;;;12.70;99.00;;;;;;4975294;28;20171;-83
2021/05/30 06:18:03;;;;;;;24.27;21.07;;;12.70;99.40;;;;;;4975396;28;20191;-83
2021/05/30 06:20:34;;;;;;;27.73;23.17;;;12.80;98.90;;;;;;4976846;28;20523;-83
2021/05/30 06:26:42;;;;;;;25.37;22.10;;;12.90;98.70;;;;;;4960693;28;20219;-83
2021/05/30 06:39:08;;;;;;;26.03;21.80;;;13.20;97.10;;;;;;4957059;28;20176;-83
2021/05/30 06:41:19;;;;;;;25.00;21.50;;;13.40;96.10;;;;;;4975894;28;20180;-83
2021/05/30 06:44:11;;;;;;;28.43;22.83;;;13.40;96.10;;;;;;4976237;28;20659;-82
2021/05/30 06:50:21;;;;;;;24.47;20.37;;;13.20;96.60;;;;;;4976490;28;20301;-83
2021/05/30 06:53:14;;;;;;;26.13;23.17;;;13.20;96.50;;;;;;4975242;28;20192;-83
2021/05/30 06:55:49;;;;;;;26.23;21.50;;;13.40;96.30;;;;;;4974977;28;20208;-83
2021/05/30 06:58:25;;;;;;;26.67;21.50;;;13.40;95.50;;;;;;4983959;28;20178;-83
2021/05/30 07:00:51;;;;;;;27.67;21.90;;;13.40;95.90;;;;;;4994705;28;20191;-83
2021/05/30 07:03:17;;;;;;;26.40;21.47;;;13.50;95.70;;;;;;4995714;28;20170;-83
2021/05/30 07:05:43;;;;;;;24.20;21.60;;;13.60;95.10;;;;;;4994137;28;20238;-82
2021/05/30 07:08:11;;;;;;;26.63;22.37;;;13.70;94.30;;;;;;4995126;28;20198;-83
2021/05/30 07:10:37;;;;;;;26.70;23.20;;;13.70;93.90;;;;;;4995256;28;20191;-83
2021/05/30 07:13:03;;;;;;;23.47;20.87;;;13.80;93.50;;;;;;4993668;28;20182;-83
2021/05/30 07:15:29;;;;;;;23.70;21.20;;;13.90;93.00;;;;;;4994671;28;20612;-83
2021/05/30 07:17:56;;;;;;;23.80;20.93;;;13.90;92.80;;;;;;4994909;28;20214;-83
2021/05/30 07:20:22;;;;;;;24.80;20.57;;;13.90;92.90;;;;;;4993769;28;20312;-83
2021/05/30 07:22:48;;;;;;;24.30;20.07;;;14.00;92.00;;;;;;4994715;28;20674;-83
2021/05/30 07:25:14;;;;;;;23.70;20.10;;;14.10;91.90;;;;;;4995332;28;20683;-82
2021/05/30 07:27:41;;;;;;;23.77;20.67;;;14.00;91.70;;;;;;5001115;28;20176;-82
2021/05/30 07:30:07;;;;;;;24.37;21.17;;;14.00;91.70;;;;;;5002223;28;20179;-83
2021/05/30 07:32:33;;;;;;;24.90;22.13;;;14.10;91.20;;;;;;4998305;28;20173;-83
2021/05/30 07:34:59;;;;;;;22.33;19.93;;;14.20;91.20;;;;;;4997780;28;20225;-83
2021/05/30 07:37:26;;;;;;;26.17;21.57;;;14.20;91.20;;;;;;4999814;28;20167;-81
2021/05/30 07:39:52;;;;;;;24.47;20.90;;;14.20;90.50;;;;;;5007029;28;20191;-82
2021/05/30 07:42:17;;;;;;;24.27;19.83;;;14.40;90.10;;;;;;4997239;28;20186;-82
2021/05/30 07:44:43;;;;;;;22.97;19.93;;;14.50;88.10;;;;;;5009224;28;20203;-82
2021/05/30 07:47:14;;;;;;;23.00;20.00;;;14.60;84.60;;;;;;4998228;28;20172;-82
2021/05/30 07:49:43;;;;;;;24.83;20.30;;;14.70;83.00;;;;;;5000728;28;20183;-83
2021/05/30 07:52:09;;;;;;;22.50;19.33;;;14.80;82.00;;;;;;4996269;28;20206;-83
2021/05/30 07:54:39;;;;;;;21.50;19.20;;;14.80;79.10;;;;;;4994512;28;20679;-83
2021/05/30 07:57:05;;;;;;;21.23;18.93;;;14.90;78.40;;;;;;4994847;28;20643;-82
2021/05/30 07:59:31;;;;;;;23.00;20.53;;;15.10;76.80;;;;;;4980252;28;20172;-83
2021/05/30 08:01:58;;;;;;;21.73;18.00;;;15.20;76.10;;;;;;4988436;28;20240;-82
2021/05/30 08:04:24;;;;;;;20.67;18.23;;;15.30;70.00;;;;;;4983125;28;20239;-83
2021/05/30 08:07:00;;;;;;;21.23;17.30;;;15.40;70.00;;;;;;4977600;28;20173;-82
2021/05/30 08:09:30;;;;;;;20.03;17.83;;;15.40;66.80;;;;;;4976901;28;20199;-83
2021/05/30 08:11:58;;;;;;;19.17;17.03;;;15.50;64.00;;;;;;4975847;28;20181;-84
2021/05/30 08:14:27;;;;;;;19.33;17.27;;;15.70;64.20;;;;;;4975638;28;20159;-83
2021/05/30 08:16:54;;;;;;;21.47;17.03;;;15.70;59.70;;;;;;4978617;28;20180;-83
2021/05/30 08:19:19;;;;;;;19.80;16.87;;;15.90;59.40;;;;;;4989622;28;20199;-83
2021/05/30 08:21:45;;;;;;;18.53;16.13;;;16.00;56.40;;;;;;4974371;28;20275;-83
2021/05/30 08:24:12;;;;;;;19.20;17.20;;;16.10;55.00;;;;;;4974113;28;20216;-83
2021/05/30 08:26:40;;;;;;;20.60;16.83;;;16.20;54.50;;;;;;4974177;28;20173;-83
2021/05/30 08:29:12;;;;;;;16.53;14.73;;;16.40;53.80;;;;;;4974266;28;20286;-82
2021/05/30 08:31:38;;;;;;;22.17;16.30;;;16.40;43.90;;;;;;4974084;28;20179;-83
2021/05/30 08:34:04;;;;;;;18.73;16.03;;;16.50;42.00;;;;;;4974419;28;20179;-83
2021/05/30 08:36:29;;;;;;;17.33;14.97;;;16.50;42.10;;;;;;4972939;28;20175;-83
2021/05/30 08:38:55;;;;;;;16.87;15.07;;;16.50;28.60;;;;;;4974352;28;20525;-83
2021/05/30 08:41:21;;;;;;;18.10;15.37;;;16.60;26.00;;;;;;4972623;28;20179;-83
2021/05/30 08:43:47;;;;;;;16.13;13.43;;;17.00;24.00;;;;;;4974182;28;20181;-83
2021/05/30 08:46:13;;;;;;;18.67;14.23;;;16.80;12.20;;;;;;4973947;28;20281;-83
2021/05/30 08:48:39;;;;;;;16.03;14.07;;;17.00;8.10;;;;;;4976699;28;20197;-83
2021/05/30 08:51:06;;;;;;;17.27;13.73;;;17.00;7.10;;;;;;4978010;28;20307;-83
2021/05/30 08:53:37;;;;;;;16.50;13.17;;;17.00;8.30;;;;;;4993188;28;20182;-83
2021/05/30 08:56:05;;;;;;;15.33;11.87;;;16.90;9.50;;;;;;4977782;28;20163;-83
2021/05/30 08:58:57;;;;;;;13.73;12.27;;;16.90;1.00;;;;;;4987945;28;20193;-83
2021/05/30 09:01:27;;;;;;;14.47;11.93;;;17.00;1.00;;;;;;4995116;28;20214;-83
2021/05/30 09:04:06;;;;;;;14.40;11.90;;;17.00;1.00;;;;;;4997626;28;20171;-83
2021/05/30 09:06:37;;;;;;;14.53;12.63;;;17.00;1.00;;;;;;4997562;28;20175;-83
2021/05/30 09:09:06;;;;;;;14.60;12.47;;;17.10;1.00;;;;;;4997393;28;20654;-83
2021/05/30 09:11:50;;;;;;;14.07;11.90;;;17.20;1.00;;;;;;4997220;28;20175;-83
2021/05/30 09:14:22;;;;;;;12.33;10.83;;;17.20;1.00;;;;;;4997738;28;20220;-83
2021/05/30 09:16:57;;;;;;;11.23;9.50;;;17.30;1.00;;;;;;4995991;28;20267;-83
2021/05/30 09:19:52;;;;;;;12.77;9.87;;;17.30;1.00;;;;;;4997265;28;20180;-83
2021/05/30 09:22:24;;;;;;;14.47;10.87;;;17.40;1.00;;;;;;4996326;28;20188;-83
2021/05/30 09:25:07;;;;;;;13.27;9.53;;;17.50;1.00;;;;;;4996799;28;20277;-83
2021/05/30 09:27:34;;;;;;;12.27;9.70;;;17.70;1.00;;;;;;4997054;28;20237;-83
2021/05/30 09:30:44;;;;;;;11.80;10.03;;;17.80;1.00;;;;;;4996662;28;20180;-83
2021/05/30 09:33:23;;;;;;;11.77;9.63;;;17.90;1.00;;;;;;5008719;28;20253;-81
2021/05/30 09:35:57;;;;;;;12.93;9.80;;;18.10;1.00;;;;;;4996848;28;20635;-83
2021/05/30 09:38:35;;;;;;;9.77;8.13;;;18.10;1.00;;;;;;5012571;28;20186;-82
2021/05/30 09:41:05;;;;;;;10.70;9.17;;;18.10;1.00;;;;;;4996492;28;20178;-82
2021/05/30 09:43:52;;;;;;;11.87;9.30;;;18.10;1.00;;;;;;4995303;28;20262;-81
2021/05/30 09:46:22;;;;;;;11.87;9.50;;;18.10;1.00;;;;;;4996529;28;20190;-83
2021/05/30 09:48:57;;;;;;;12.13;10.40;;;18.10;1.00;;;;;;4996589;28;20179;-82
2021/05/30 09:51:25;;;;;;;10.73;9.13;;;18.10;1.00;;;;;;4995260;28;20174;-81
2021/05/30 09:54:02;;;;;;;10.83;8.93;;;17.90;1.00;;;;;;4995357;28;20181;-81
2021/05/30 09:56:44;;;;;;;11.20;9.23;;;17.90;1.00;;;;;;4995171;28;20538;-82
2021/05/30 09:59:14;;;;;;;10.10;7.97;;;18.00;1.00;;;;;;4980704;28;20670;-80
2021/05/30 10:01:51;;;;;;;8.77;7.80;;;18.20;1.00;;;;;;4976638;28;20222;-81
2021/05/30 10:04:18;;;;;;;11.40;9.23;;;18.40;1.00;;;;;;4976542;28;20246;-81
2021/05/30 10:06:44;;;;;;;12.43;9.83;;;18.50;1.00;;;;;;4976891;28;20173;-80
2021/05/30 10:09:12;;;;;;;10.97;9.37;;;18.50;1.00;;;;;;4976377;28;20191;-80
2021/05/30 10:11:38;;;;;;;12.00;9.90;;;18.70;1.00;;;;;;4977390;28;20652;-80
2021/05/30 10:14:05;;;;;;;12.43;10.17;;;18.80;1.00;;;;;;4976672;28;20171;-80
2021/05/30 10:16:32;;;;;;;11.10;8.80;;;18.80;1.00;;;;;;4976623;28;20546;-80
2021/05/30 10:19:13;;;;;;;9.07;6.50;;;18.70;1.00;;;;;;4976563;28;20179;-80
2021/05/30 10:21:49;;;;;;;8.77;6.67;;;18.80;99.90;;;;;;4976273;28;20228;-80
2021/05/30 10:24:15;;;;;;;6.80;6.10;;;18.80;1.00;;;;;;4976457;28;20210;-79
2021/05/30 10:26:41;;;;;;;9.20;7.97;;;19.00;99.90;;;;;;4975838;28;20180;-78
2021/05/30 10:29:15;;;;;;;11.23;7.90;;;18.90;99.90;;;;;;4979357;28;20699;-78
2021/05/30 10:31:45;;;;;;;8.60;7.07;;;18.80;99.90;;;;;;4977329;28;20175;-80
2021/05/30 10:34:10;;;;;;;8.90;7.03;;;18.90;1.00;;;;;;4976374;28;20168;-80
2021/05/30 10:37:01;;;;;;;10.93;6.97;;;18.80;1.00;;;;;;4976185;28;20222;-80
2021/05/30 10:39:30;;;;;;;8.97;7.50;;;19.00;99.90;;;;;;4973277;28;20207;-80
2021/05/30 10:42:25;;;;;;;8.13;7.33;;;19.00;99.90;;;;;;4976030;28;20175;-80
2021/05/30 10:45:03;;;;;;;9.70;8.00;;;19.00;1.00;;;;;;4976728;28;20207;-80
2021/05/30 10:47:44;;;;;;;10.00;8.70;;;19.00;99.90;;;;;;4975914;28;20203;-79
2021/05/30 10:50:19;;;;;;;9.60;8.57;;;18.90;1.00;;;;;;4987605;28;20183;-80
2021/05/30 10:52:46;;;;;;;11.13;9.43;;;19.00;99.90;;;;;;4994855;28;20524;-82
2021/05/30 10:55:28;;;;;;;9.87;7.73;;;19.00;1.00;;;;;;4994811;28;20701;-81
2021/05/30 10:57:54;;;;;;;9.43;7.90;;;18.90;99.90;;;;;;4993703;28;20179;-79
2021/05/30 11:00:22;;;;;;;8.47;6.87;;;19.10;1.00;;;;;;4998512;28;20178;-79
2021/05/30 11:03:04;;;;;;;9.23;7.43;;;19.30;15.70;;;;;;4996060;28;20179;-79
2021/05/30 11:05:49;;;;;;;9.20;6.77;;;19.40;1.00;;;;;;4995990;28;20248;-79
2021/05/30 11:08:31;;;;;;;7.03;5.27;;;19.40;99.90;;;;;;4995192;28;20193;-80
2021/05/30 11:11:22;;;;;;;6.60;5.30;;;19.60;99.90;;;;;;4992966;28;20200;-79
2021/05/30 11:14:14;;;;;;;12.50;5.47;;;19.60;99.90;;;;;;4993094;28;20179;-79
2021/05/30 11:16:47;;;;;;;6.63;4.23;;;19.60;1.00;;;;;;4994364;28;20187;-80
2021/05/30 11:19:18;;;;;;;8.67;4.67;;;19.70;99.90;;;;;;4995032;28;20175;-79
2021/05/30 11:21:47;;;;;;;7.53;5.57;;;20.00;99.90;;;;;;4994656;28;20167;-79
2021/05/30 11:24:17;;;;;;;6.47;5.23;;;20.10;1.00;;;;;;4996268;28;20209;-81
2021/05/30 11:26:57;;;;;;;9.80;5.03;;;19.90;1.00;;;;;;4994789;28;20234;-80
2021/05/30 11:29:23;;;;;;;9.17;5.50;;;20.00;1.00;;;;;;4994647;28;20170;-82
2021/05/30 11:31:49;;;;;;;6.60;5.03;;;20.00;20.40;;;;;;5009762;28;20652;-80
2021/05/30 11:34:15;;;;;;;7.10;4.60;;;19.90;1.00;;;;;;4994938;28;20164;-79
2021/05/30 11:36:41;;;;;;;8.83;4.70;;;19.90;99.90;;;;;;4994015;28;20229;-80
2021/05/30 11:39:10;;;;;;;5.90;4.50;;;20.20;14.50;;;;;;4993950;28;20164;-79
2021/05/30 11:41:43;;;;;;;7.03;5.33;;;20.40;1.00;;;;;;4995819;28;20179;-79
2021/05/30 11:44:15;;;;;;;8.30;4.27;;;20.40;1.00;;;;;;4995967;28;20170;-80
2021/05/30 11:47:01;;;;;;;5.67;4.17;;;20.30;99.90;;;;;;5004076;28;20222;-79
2021/05/30 11:49:31;;;;;;;5.40;4.03;;;20.30;1.00;;;;;;5008814;28;20258;-80
2021/05/30 11:52:08;;;;;;;6.37;4.20;;;20.30;1.00;;;;;;5006574;28;20183;-78
2021/05/30 11:54:54;;;;;;;5.93;3.60;;;20.50;1.00;;;;;;5010146;28;20202;-78
2021/05/30 11:57:25;;;;;;;5.73;3.13;;;20.60;99.90;;;;;;5005279;28;20594;-79
2021/05/30 12:00:03;;;;;;;6.07;3.87;;;20.60;1.00;;;;;;4994416;28;20176;-79
2021/05/30 12:02:33;;;;;;;5.63;3.70;;;20.80;1.00;;;;;;4980025;28;20185;-80
2021/05/30 12:05:04;;;;;;;5.23;3.90;;;20.90;1.00;;;;;;4974668;28;20247;-79
2021/05/30 12:07:30;;;;;;;5.57;4.10;;;21.00;99.90;;;;;;4975233;28;20175;-80
2021/05/30 12:10:14;;;;;;;5.30;3.97;;;21.20;99.90;;;;;;4974158;28;20194;-79
2021/05/30 12:12:43;;;;;;;5.20;4.20;;;21.40;99.90;;;;;;4972955;28;20273;-80
2021/05/30 12:15:22;;;;;;;4.83;4.07;;;21.40;1.00;;;;;;4973020;28;20178;-79
2021/05/30 12:17:54;;;;;;;4.50;3.83;;;21.40;99.90;;;;;;4973509;28;20301;-79
2021/05/30 12:20:23;;;;;;;5.73;3.90;;;21.00;99.90;;;;;;4972937;28;20177;-79
2021/05/30 12:22:48;;;;;;;5.47;3.77;;;21.00;99.90;;;;;;4971863;28;20187;-80
2021/05/30 12:25:16;;;;;;;5.23;3.83;;;21.00;99.90;;;;;;4973892;28;20307;-79
2021/05/30 12:27:42;;;;;;;5.27;3.80;;;21.20;1.00;;;;;;4974044;28;20173;-81
2021/05/30 12:30:11;;;;;;;4.77;3.97;;;21.00;99.90;;;;;;4974605;28;20260;-79
2021/05/30 12:32:37;;;;;;;4.60;4.20;;;20.90;99.90;;;;;;4972633;28;20344;-81
2021/05/30 12:35:04;;;;;;;8.60;4.80;;;20.80;99.90;;;;;;4974529;28;20592;-79
2021/05/30 12:37:41;;;;;;;5.53;4.43;;;20.70;99.90;;;;;;4974036;28;20229;-81
2021/05/30 12:40:09;;;;;;;5.63;4.37;;;20.90;99.90;;;;;;4972971;28;20187;-81
2021/05/30 12:42:36;;;;;;;6.07;4.67;;;21.00;99.90;;;;;;4974125;28;20204;-81
2021/05/30 12:45:10;;;;;;;8.03;6.63;;;21.00;99.90;;;;;;4990066;28;20208;-80
2021/05/30 12:47:43;;;;;;;19.00;15.97;;;21.00;1.00;;;;;;4975726;28;20192;-80
2021/05/30 12:50:11;;;;;;;18.37;11.33;;;21.10;1.00;;;;;;4976694;28;20222;-78
2021/05/30 12:52:54;;;;;;;6.90;5.07;;;21.10;1.00;;;;;;4979276;28;20173;-79
2021/05/30 12:55:39;;;;;;;4.93;4.00;;;21.40;97.90;;;;;;4975297;28;20173;-80
2021/05/30 12:58:18;;;;;;;4.40;3.70;;;21.50;99.90;;;;;;4981627;28;20176;-80
2021/05/30 13:00:44;;;;;;;5.93;4.50;;;21.70;1.00;;;;;;4994088;28;20185;-81
2021/05/30 13:03:11;;;;;;;7.33;4.53;;;21.80;1.00;;;;;;5009338;28;20559;-80
2021/05/30 13:05:41;;;;;;;18.83;15.20;;;21.70;1.00;;;;;;4993767;28;20685;-79
2021/05/30 13:08:14;;;;;;;29.20;23.43;;;21.70;1.00;;;;;;4994830;28;20236;-79
2021/05/30 13:11:00;;;;;;;4.10;3.67;;;21.60;99.90;;;;;;4994523;28;20206;-78
2021/05/30 13:13:40;;;;;;;7.03;4.93;;;21.70;1.00;;;;;;4998282;28;20277;-78
2021/05/30 13:16:06;;;;;;;16.20;10.00;;;21.50;99.90;;;;;;4993698;28;20180;-81
2021/05/30 13:18:52;;;;;;;22.57;19.77;;;21.50;99.90;;;;;;5008622;28;20333;-80
2021/05/30 13:21:20;;;;;;;6.27;4.90;;;21.50;1.00;;;;;;4994205;28;20243;-80
2021/05/30 13:23:46;;;;;;;7.67;5.00;;;21.40;1.00;;;;;;4993669;28;20653;-80
2021/05/30 13:26:13;;;;;;;6.30;4.63;;;21.40;99.90;;;;;;4993355;28;20211;-80
2021/05/30 13:28:44;;;;;;;6.10;3.80;;;21.50;99.90;;;;;;4992583;28;20177;-79
2021/05/30 13:31:15;;;;;;;6.30;3.83;;;21.80;99.90;;;;;;5008331;28;20271;-80
2021/05/30 13:33:44;;;;;;;5.63;4.23;;;21.70;1.00;;;;;;4994354;28;20177;-81
2021/05/30 13:36:11;;;;;;;9.47;8.07;;;21.70;1.00;;;;;;4997868;28;20177;-80
2021/05/30 13:38:37;;;;;;;14.47;11.13;;;21.90;1.00;;;;;;4997127;28;20169;-81
2021/05/30 13:41:13;;;;;;;19.83;17.53;;;22.00;1.00;;;;;;4997351;28;20199;-78
2021/05/30 13:43:38;;;;;;;6.20;4.87;;;22.00;1.00;;;;;;4997334;28;20180;-80
2021/05/30 13:46:04;;;;;;;10.30;8.87;;;22.00;99.90;;;;;;4995889;28;20213;-79
2021/05/30 13:48:30;;;;;;;20.30;16.97;;;22.10;1.00;;;;;;4996058;28;20262;-79
2021/05/30 13:51:02;;;;;;;4.70;3.53;;;22.20;91.20;;;;;;5012386;28;20192;-79
2021/05/30 13:53:31;;;;;;;6.03;4.13;;;22.00;1.00;;;;;;4997344;28;20170;-79
2021/05/30 13:55:58;;;;;;;5.70;3.60;;;22.10;1.00;;;;;;5011011;28;20233;-80
2021/05/30 13:58:24;;;;;;;5.30;3.40;;;22.10;1.00;;;;;;4988440;28;20631;-77
2021/05/30 14:00:50;;;;;;;5.00;4.23;;;21.90;1.00;;;;;;4991904;28;20268;-79
2021/05/30 14:03:15;;;;;;;4.50;3.30;;;21.70;1.00;;;;;;4977729;28;20693;-79
2021/05/30 14:05:41;;;;;;;3.77;3.00;;;21.70;1.00;;;;;;4977325;28;20209;-78
2021/05/30 14:08:07;;;;;;;6.90;3.40;;;21.90;1.00;;;;;;4991463;28;20173;-79
2021/05/30 14:10:33;;;;;;;5.40;3.50;;;22.10;1.00;;;;;;4976007;28;20559;-80
2021/05/30 14:12:58;;;;;;;3.90;3.17;;;22.50;1.00;;;;;;4976325;28;20199;-80
2021/05/30 14:15:24;;;;;;;4.80;3.20;;;22.50;1.00;;;;;;4975921;28;20191;-80
2021/05/30 14:17:50;;;;;;;6.70;3.90;;;22.80;1.00;;;;;;4977143;28;20271;-80
2021/05/30 14:20:16;;;;;;;4.80;3.23;;;22.90;99.90;;;;;;4978400;28;20216;-80
2021/05/30 14:22:42;;;;;;;4.97;3.10;;;23.20;99.90;;;;;;4980071;28;20187;-78
2021/05/30 14:25:08;;;;;;;4.90;3.50;;;23.20;1.00;;;;;;4979563;28;20588;-81
2021/05/30 14:27:35;;;;;;;4.50;3.30;;;23.10;1.00;;;;;;4979255;28;20177;-79
2021/05/30 14:30:01;;;;;;;4.23;3.13;;;22.90;1.00;;;;;;4977740;28;20201;-81
2021/05/30 14:32:27;;;;;;;5.43;4.07;;;22.70;1.00;;;;;;4977815;28;20191;-80
2021/05/30 14:34:53;;;;;;;3.77;2.70;;;22.60;99.90;;;;;;4977311;28;20191;-80
2021/05/30 14:37:19;;;;;;;4.90;3.00;;;22.80;1.00;;;;;;4977709;28;20266;-80